sensor_id;sensor_type;location;lat;lon;timestamp;P1;durP1;ratioP1;P2;durP2;ratioP2
77400;SDS011;66855;45.414;11.082;2023-05-19T00:02:23;4.40;;;2.10;;
77400;SDS011;66855;45.414;11.082;2023-05-19T00:04:51;3.90;;;2.00;;
77400;SDS011;66855;45.414;11.082;2023-05-19T00:07:18;2.80;;;2.20;;
77400;SDS011;66855;45.414;11.082;2023-05-19T00:09:47;3.60;;;2.20;;
77400;SDS011;66855;45.414;11.082;2023-05-19T00:12:14;4.60;;;2.00;;
77400;SDS011;66855;45.414;11.082;2023-05-19T00:14:41;5.00;;;2.30;;
77400;SDS011;66855;45.414;11.082;2023-05-19T00:17:08;3.30;;;1.90;;
77400;SDS011;66855;45.414;11.082;2023-05-19T00:19:35;3.50;;;1.80;;
77400;SDS011;66855;45.414;11.082;2023-05-19T00:22:03;4.50;;;1.80;;
77400;SDS011;66855;45.414;11.082;2023-05-19T00:24:30;6.20;;;2.20;;
77400;SDS011;66855;45.414;11.082;2023-05-19T00:26:57;3.10;;;2.00;;
77400;SDS011;66855;45.414;11.082;2023-05-19T00:29:24;5.10;;;2.00;;
77400;SDS011;66855;45.414;11.082;2023-05-19T00:31:51;3.00;;;1.80;;
77400;SDS011;66855;45.414;11.082;2023-05-19T00:34:17;3.10;;;2.00;;
77400;SDS011;66855;45.414;11.082;2023-05-19T00:36:44;4.80;;;1.90;;
77400;SDS011;66855;45.414;11.082;2023-05-19T00:39:12;4.60;;;2.10;;
77400;SDS011;66855;45.414;11.082;2023-05-19T00:41:40;3.00;;;2.30;;
77400;SDS011;66855;45.414;11.082;2023-05-19T00:44:06;2.90;;;1.80;;
77400;SDS011;66855;45.414;11.082;2023-05-19T00:46:35;3.60;;;2.10;;
77400;SDS011;66855;45.414;11.082;2023-05-19T00:49:04;4.30;;;2.10;;
77400;SDS011;66855;45.414;11.082;2023-05-19T00:51:31;4.60;;;1.90;;
77400;SDS011;66855;45.414;11.082;2023-05-19T00:53:58;4.00;;;2.00;;
77400;SDS011;66855;45.414;11.082;2023-05-19T00:56:25;2.70;;;1.70;;
77400;SDS011;66855;45.414;11.082;2023-05-19T00:58:52;2.90;;;1.90;;
77400;SDS011;66855;45.414;11.082;2023-05-19T01:01:19;3.50;;;1.90;;
77400;SDS011;66855;45.414;11.082;2023-05-19T01:03:48;3.40;;;2.20;;
77400;SDS011;66855;45.414;11.082;2023-05-19T01:06:15;4.50;;;2.00;;
77400;SDS011;66855;45.414;11.082;2023-05-19T01:08:44;2.80;;;2.20;;
77400;SDS011;66855;45.414;11.082;2023-05-19T01:11:11;3.40;;;1.70;;
77400;SDS011;66855;45.414;11.082;2023-05-19T01:13:38;4.40;;;2.10;;
77400;SDS011;66855;45.414;11.082;2023-05-19T01:18:55;3.30;;;2.00;;
77400;SDS011;66855;45.414;11.082;2023-05-19T01:24:21;3.30;;;2.00;;
77400;SDS011;66855;45.414;11.082;2023-05-19T01:32:18;3.50;;;1.90;;
77400;SDS011;66855;45.414;11.082;2023-05-19T01:34:47;3.50;;;1.90;;
77400;SDS011;66855;45.414;11.082;2023-05-19T01:39:42;3.10;;;1.90;;
77400;SDS011;66855;45.414;11.082;2023-05-19T01:42:10;4.00;;;2.00;;
77400;SDS011;66855;45.414;11.082;2023-05-19T01:44:38;3.30;;;1.90;;
77400;SDS011;66855;45.414;11.082;2023-05-19T01:47:04;4.10;;;2.00;;
77400;SDS011;66855;45.414;11.082;2023-05-19T01:49:31;3.10;;;2.10;;
77400;SDS011;66855;45.414;11.082;2023-05-19T01:51:58;5.00;;;2.30;;
77400;SDS011;66855;45.414;11.082;2023-05-19T01:54:25;2.90;;;1.90;;
77400;SDS011;66855;45.414;11.082;2023-05-19T01:59:55;5.10;;;2.30;;
77400;SDS011;66855;45.414;11.082;2023-05-19T02:05:27;3.40;;;1.90;;
77400;SDS011;66855;45.414;11.082;2023-05-19T02:08:03;5.80;;;2.30;;
77400;SDS011;66855;45.414;11.082;2023-05-19T02:11:11;4.50;;;2.40;;
77400;SDS011;66855;45.414;11.082;2023-05-19T02:13:41;3.20;;;2.20;;
77400;SDS011;66855;45.414;11.082;2023-05-19T02:16:09;5.10;;;2.50;;
77400;SDS011;66855;45.414;11.082;2023-05-19T02:18:39;6.40;;;2.70;;
77400;SDS011;66855;45.414;11.082;2023-05-19T02:21:11;3.70;;;2.50;;
77400;SDS011;66855;45.414;11.082;2023-05-19T02:23:39;3.70;;;2.40;;
77400;SDS011;66855;45.414;11.082;2023-05-19T02:26:07;3.70;;;2.40;;
77400;SDS011;66855;45.414;11.082;2023-05-19T02:28:34;3.20;;;2.30;;
77400;SDS011;66855;45.414;11.082;2023-05-19T02:31:02;3.00;;;2.30;;
77400;SDS011;66855;45.414;11.082;2023-05-19T02:33:31;3.50;;;2.50;;
77400;SDS011;66855;45.414;11.082;2023-05-19T02:35:58;4.20;;;2.50;;
77400;SDS011;66855;45.414;11.082;2023-05-19T02:38:25;2.70;;;2.30;;
77400;SDS011;66855;45.414;11.082;2023-05-19T02:40:52;3.00;;;2.30;;
77400;SDS011;66855;45.414;11.082;2023-05-19T02:43:18;4.60;;;2.40;;
77400;SDS011;66855;45.414;11.082;2023-05-19T02:45:45;5.40;;;2.70;;
77400;SDS011;66855;45.414;11.082;2023-05-19T02:48:12;3.10;;;2.00;;
77400;SDS011;66855;45.414;11.082;2023-05-19T02:50:39;4.10;;;2.30;;
77400;SDS011;66855;45.414;11.082;2023-05-19T02:53:06;3.10;;;2.30;;
77400;SDS011;66855;45.414;11.082;2023-05-19T02:55:32;4.20;;;2.80;;
77400;SDS011;66855;45.414;11.082;2023-05-19T02:57:59;3.20;;;1.90;;
77400;SDS011;66855;45.414;11.082;2023-05-19T03:00:26;4.50;;;2.60;;
77400;SDS011;66855;45.414;11.082;2023-05-19T03:02:53;4.10;;;2.50;;
77400;SDS011;66855;45.414;11.082;2023-05-19T03:05:21;4.30;;;2.80;;
77400;SDS011;66855;45.414;11.082;2023-05-19T03:07:48;5.00;;;2.60;;
77400;SDS011;66855;45.414;11.082;2023-05-19T03:10:14;3.10;;;2.30;;
77400;SDS011;66855;45.414;11.082;2023-05-19T03:12:41;3.70;;;2.10;;
77400;SDS011;66855;45.414;11.082;2023-05-19T03:15:08;3.90;;;2.60;;
77400;SDS011;66855;45.414;11.082;2023-05-19T03:17:35;4.00;;;2.20;;
77400;SDS011;66855;45.414;11.082;2023-05-19T03:20:02;5.80;;;2.40;;
77400;SDS011;66855;45.414;11.082;2023-05-19T03:22:31;3.80;;;2.40;;
77400;SDS011;66855;45.414;11.082;2023-05-19T03:24:58;4.00;;;2.50;;
77400;SDS011;66855;45.414;11.082;2023-05-19T03:27:25;3.60;;;2.50;;
77400;SDS011;66855;45.414;11.082;2023-05-19T03:29:52;5.30;;;2.60;;
77400;SDS011;66855;45.414;11.082;2023-05-19T03:32:19;3.70;;;2.60;;
77400;SDS011;66855;45.414;11.082;2023-05-19T03:34:46;4.90;;;2.70;;
77400;SDS011;66855;45.414;11.082;2023-05-19T03:37:14;5.00;;;2.60;;
77400;SDS011;66855;45.414;11.082;2023-05-19T03:39:41;4.10;;;2.40;;
77400;SDS011;66855;45.414;11.082;2023-05-19T03:42:08;3.70;;;3.20;;
77400;SDS011;66855;45.414;11.082;2023-05-19T03:44:34;5.70;;;2.80;;
77400;SDS011;66855;45.414;11.082;2023-05-19T03:47:01;4.30;;;2.60;;
77400;SDS011;66855;45.414;11.082;2023-05-19T03:49:28;5.70;;;3.20;;
77400;SDS011;66855;45.414;11.082;2023-05-19T03:52:07;6.30;;;3.20;;
77400;SDS011;66855;45.414;11.082;2023-05-19T03:54:45;7.00;;;3.20;;
77400;SDS011;66855;45.414;11.082;2023-05-19T03:57:12;4.90;;;3.10;;
77400;SDS011;66855;45.414;11.082;2023-05-19T03:59:39;5.40;;;3.30;;
77400;SDS011;66855;45.414;11.082;2023-05-19T04:02:07;6.40;;;2.80;;
77400;SDS011;66855;45.414;11.082;2023-05-19T04:04:34;6.10;;;3.40;;
77400;SDS011;66855;45.414;11.082;2023-05-19T04:07:01;6.10;;;3.10;;
77400;SDS011;66855;45.414;11.082;2023-05-19T04:09:28;5.70;;;3.20;;
77400;SDS011;66855;45.414;11.082;2023-05-19T04:11:57;3.60;;;2.60;;
77400;SDS011;66855;45.414;11.082;2023-05-19T04:14:23;4.60;;;2.80;;
77400;SDS011;66855;45.414;11.082;2023-05-19T04:16:50;6.70;;;3.30;;
77400;SDS011;66855;45.414;11.082;2023-05-19T04:19:17;6.30;;;3.20;;
77400;SDS011;66855;45.414;11.082;2023-05-19T04:21:44;4.80;;;3.10;;
77400;SDS011;66855;45.414;11.082;2023-05-19T04:24:11;6.10;;;3.30;;
77400;SDS011;66855;45.414;11.082;2023-05-19T04:26:38;3.80;;;2.90;;
77400;SDS011;66855;45.414;11.082;2023-05-19T04:29:08;4.90;;;2.80;;
77400;SDS011;66855;45.414;11.082;2023-05-19T04:31:36;3.00;;;2.60;;
77400;SDS011;66855;45.414;11.082;2023-05-19T04:34:04;5.60;;;2.70;;
77400;SDS011;66855;45.414;11.082;2023-05-19T04:36:31;3.90;;;2.40;;
77400;SDS011;66855;45.414;11.082;2023-05-19T04:39:00;4.90;;;2.70;;
77400;SDS011;66855;45.414;11.082;2023-05-19T04:41:32;3.50;;;2.40;;
77400;SDS011;66855;45.414;11.082;2023-05-19T04:46:28;4.30;;;2.40;;
77400;SDS011;66855;45.414;11.082;2023-05-19T04:48:56;3.60;;;2.30;;
77400;SDS011;66855;45.414;11.082;2023-05-19T04:51:22;3.70;;;2.70;;
77400;SDS011;66855;45.414;11.082;2023-05-19T04:53:57;5.40;;;2.50;;
77400;SDS011;66855;45.414;11.082;2023-05-19T04:56:24;4.90;;;3.10;;
77400;SDS011;66855;45.414;11.082;2023-05-19T04:58:52;4.40;;;2.60;;
77400;SDS011;66855;45.414;11.082;2023-05-19T05:01:19;4.00;;;2.20;;
77400;SDS011;66855;45.414;11.082;2023-05-19T05:03:53;3.90;;;2.60;;
77400;SDS011;66855;45.414;11.082;2023-05-19T05:06:21;4.60;;;2.20;;
77400;SDS011;66855;45.414;11.082;2023-05-19T05:08:48;3.70;;;2.30;;
77400;SDS011;66855;45.414;11.082;2023-05-19T05:11:16;4.90;;;2.90;;
77400;SDS011;66855;45.414;11.082;2023-05-19T05:13:44;4.20;;;2.20;;
77400;SDS011;66855;45.414;11.082;2023-05-19T05:16:12;5.90;;;2.80;;
77400;SDS011;66855;45.414;11.082;2023-05-19T05:18:41;6.40;;;2.70;;
77400;SDS011;66855;45.414;11.082;2023-05-19T05:21:10;5.60;;;3.60;;
77400;SDS011;66855;45.414;11.082;2023-05-19T05:23:38;5.40;;;3.10;;
77400;SDS011;66855;45.414;11.082;2023-05-19T05:26:09;4.90;;;2.40;;
77400;SDS011;66855;45.414;11.082;2023-05-19T05:28:48;5.00;;;2.70;;
77400;SDS011;66855;45.414;11.082;2023-05-19T05:31:19;5.80;;;2.80;;
77400;SDS011;66855;45.414;11.082;2023-05-19T05:33:48;7.40;;;2.80;;
77400;SDS011;66855;45.414;11.082;2023-05-19T05:36:16;5.70;;;2.80;;
77400;SDS011;66855;45.414;11.082;2023-05-19T05:38:43;6.10;;;2.90;;
77400;SDS011;66855;45.414;11.082;2023-05-19T05:41:11;9.60;;;2.70;;
77400;SDS011;66855;45.414;11.082;2023-05-19T05:43:39;5.10;;;2.50;;
77400;SDS011;66855;45.414;11.082;2023-05-19T05:48:35;3.90;;;2.60;;
77400;SDS011;66855;45.414;11.082;2023-05-19T05:51:02;4.60;;;2.60;;
77400;SDS011;66855;45.414;11.082;2023-05-19T05:53:30;3.10;;;2.20;;
77400;SDS011;66855;45.414;11.082;2023-05-19T05:56:06;3.50;;;2.30;;
77400;SDS011;66855;45.414;11.082;2023-05-19T05:58:40;4.20;;;2.20;;
77400;SDS011;66855;45.414;11.082;2023-05-19T06:01:07;6.00;;;2.70;;
77400;SDS011;66855;45.414;11.082;2023-05-19T06:03:40;3.80;;;2.40;;
77400;SDS011;66855;45.414;11.082;2023-05-19T06:06:12;5.00;;;2.20;;
77400;SDS011;66855;45.414;11.082;2023-05-19T06:08:40;4.80;;;2.10;;
77400;SDS011;66855;45.414;11.082;2023-05-19T06:11:07;4.70;;;2.00;;
77400;SDS011;66855;45.414;11.082;2023-05-19T06:13:35;7.60;;;3.10;;
77400;SDS011;66855;45.414;11.082;2023-05-19T06:16:04;3.20;;;2.10;;
77400;SDS011;66855;45.414;11.082;2023-05-19T06:18:37;3.00;;;2.00;;
77400;SDS011;66855;45.414;11.082;2023-05-19T06:21:04;4.00;;;2.50;;
77400;SDS011;66855;45.414;11.082;2023-05-19T06:23:31;4.00;;;1.90;;
77400;SDS011;66855;45.414;11.082;2023-05-19T06:25:58;3.90;;;2.40;;
77400;SDS011;66855;45.414;11.082;2023-05-19T06:28:25;6.00;;;2.50;;
77400;SDS011;66855;45.414;11.082;2023-05-19T06:30:54;4.70;;;1.90;;
77400;SDS011;66855;45.414;11.082;2023-05-19T06:33:30;4.30;;;2.30;;
77400;SDS011;66855;45.414;11.082;2023-05-19T06:35:58;4.00;;;2.30;;
77400;SDS011;66855;45.414;11.082;2023-05-19T06:38:25;3.40;;;2.00;;
77400;SDS011;66855;45.414;11.082;2023-05-19T06:40:54;4.10;;;2.10;;
77400;SDS011;66855;45.414;11.082;2023-05-19T06:43:21;4.00;;;1.90;;
77400;SDS011;66855;45.414;11.082;2023-05-19T06:45:56;4.90;;;2.10;;
77400;SDS011;66855;45.414;11.082;2023-05-19T06:48:24;4.40;;;2.10;;
77400;SDS011;66855;45.414;11.082;2023-05-19T06:50:51;3.90;;;2.40;;
77400;SDS011;66855;45.414;11.082;2023-05-19T06:53:19;4.80;;;2.20;;
77400;SDS011;66855;45.414;11.082;2023-05-19T06:55:47;3.20;;;2.00;;
77400;SDS011;66855;45.414;11.082;2023-05-19T06:58:26;4.40;;;2.70;;
77400;SDS011;66855;45.414;11.082;2023-05-19T07:00:53;3.70;;;2.30;;
77400;SDS011;66855;45.414;11.082;2023-05-19T07:03:23;4.10;;;2.10;;
77400;SDS011;66855;45.414;11.082;2023-05-19T07:05:51;6.20;;;2.40;;
77400;SDS011;66855;45.414;11.082;2023-05-19T07:08:18;3.70;;;2.30;;
77400;SDS011;66855;45.414;11.082;2023-05-19T07:10:45;6.30;;;2.30;;
77400;SDS011;66855;45.414;11.082;2023-05-19T07:13:13;4.50;;;2.30;;
77400;SDS011;66855;45.414;11.082;2023-05-19T07:15:40;6.20;;;2.30;;
77400;SDS011;66855;45.414;11.082;2023-05-19T07:18:07;4.10;;;2.10;;
77400;SDS011;66855;45.414;11.082;2023-05-19T07:20:36;4.00;;;2.40;;
77400;SDS011;66855;45.414;11.082;2023-05-19T07:23:03;4.40;;;2.30;;
77400;SDS011;66855;45.414;11.082;2023-05-19T07:25:30;4.30;;;2.40;;
77400;SDS011;66855;45.414;11.082;2023-05-19T07:27:58;3.40;;;2.60;;
77400;SDS011;66855;45.414;11.082;2023-05-19T07:30:26;3.30;;;2.20;;
77400;SDS011;66855;45.414;11.082;2023-05-19T07:32:54;3.30;;;1.90;;
77400;SDS011;66855;45.414;11.082;2023-05-19T07:35:21;3.00;;;2.10;;
77400;SDS011;66855;45.414;11.082;2023-05-19T07:37:48;4.00;;;2.20;;
77400;SDS011;66855;45.414;11.082;2023-05-19T07:40:15;4.60;;;2.00;;
77400;SDS011;66855;45.414;11.082;2023-05-19T07:42:49;3.20;;;2.20;;
77400;SDS011;66855;45.414;11.082;2023-05-19T07:45:18;4.40;;;2.60;;
77400;SDS011;66855;45.414;11.082;2023-05-19T07:47:45;3.70;;;2.30;;
77400;SDS011;66855;45.414;11.082;2023-05-19T07:50:11;7.50;;;2.50;;
77400;SDS011;66855;45.414;11.082;2023-05-19T07:52:38;3.00;;;2.10;;
77400;SDS011;66855;45.414;11.082;2023-05-19T07:55:05;3.10;;;2.30;;
77400;SDS011;66855;45.414;11.082;2023-05-19T07:57:32;4.10;;;2.50;;
77400;SDS011;66855;45.414;11.082;2023-05-19T08:00:00;3.80;;;2.50;;
77400;SDS011;66855;45.414;11.082;2023-05-19T08:02:37;4.30;;;2.70;;
77400;SDS011;66855;45.414;11.082;2023-05-19T08:05:04;7.20;;;2.90;;
77400;SDS011;66855;45.414;11.082;2023-05-19T08:07:31;4.40;;;2.60;;
77400;SDS011;66855;45.414;11.082;2023-05-19T08:09:59;4.70;;;2.90;;
77400;SDS011;66855;45.414;11.082;2023-05-19T08:12:26;5.20;;;3.10;;
77400;SDS011;66855;45.414;11.082;2023-05-19T08:14:53;4.60;;;3.00;;
77400;SDS011;66855;45.414;11.082;2023-05-19T08:17:20;4.70;;;2.00;;
77400;SDS011;66855;45.414;11.082;2023-05-19T08:19:48;6.80;;;2.50;;
77400;SDS011;66855;45.414;11.082;2023-05-19T08:22:15;3.70;;;2.40;;
77400;SDS011;66855;45.414;11.082;2023-05-19T08:24:41;6.70;;;2.80;;
77400;SDS011;66855;45.414;11.082;2023-05-19T08:27:10;3.70;;;2.80;;
77400;SDS011;66855;45.414;11.082;2023-05-19T08:29:37;5.00;;;2.40;;
77400;SDS011;66855;45.414;11.082;2023-05-19T08:32:04;6.10;;;2.40;;
77400;SDS011;66855;45.414;11.082;2023-05-19T08:34:31;3.40;;;2.30;;
77400;SDS011;66855;45.414;11.082;2023-05-19T08:36:58;5.00;;;2.40;;
77400;SDS011;66855;45.414;11.082;2023-05-19T08:39:29;3.70;;;1.90;;
77400;SDS011;66855;45.414;11.082;2023-05-19T08:41:55;3.70;;;2.30;;
77400;SDS011;66855;45.414;11.082;2023-05-19T08:44:22;4.00;;;2.10;;
77400;SDS011;66855;45.414;11.082;2023-05-19T08:46:49;3.40;;;1.90;;
77400;SDS011;66855;45.414;11.082;2023-05-19T08:49:20;4.80;;;2.30;;
77400;SDS011;66855;45.414;11.082;2023-05-19T08:51:57;3.50;;;1.90;;
77400;SDS011;66855;45.414;11.082;2023-05-19T08:54:29;3.60;;;2.30;;
77400;SDS011;66855;45.414;11.082;2023-05-19T08:57:00;5.70;;;1.80;;
77400;SDS011;66855;45.414;11.082;2023-05-19T08:59:29;4.00;;;1.90;;
77400;SDS011;66855;45.414;11.082;2023-05-19T09:01:56;3.50;;;2.00;;
77400;SDS011;66855;45.414;11.082;2023-05-19T09:04:23;4.70;;;2.80;;
77400;SDS011;66855;45.414;11.082;2023-05-19T09:06:55;3.40;;;2.40;;
77400;SDS011;66855;45.414;11.082;2023-05-19T09:09:24;6.20;;;2.40;;
77400;SDS011;66855;45.414;11.082;2023-05-19T09:11:51;4.00;;;2.40;;
77400;SDS011;66855;45.414;11.082;2023-05-19T09:14:18;4.80;;;2.60;;
77400;SDS011;66855;45.414;11.082;2023-05-19T09:16:45;6.40;;;2.60;;
77400;SDS011;66855;45.414;11.082;2023-05-19T09:19:16;5.90;;;2.70;;
77400;SDS011;66855;45.414;11.082;2023-05-19T09:21:43;5.00;;;2.80;;
77400;SDS011;66855;45.414;11.082;2023-05-19T09:24:11;4.50;;;2.50;;
77400;SDS011;66855;45.414;11.082;2023-05-19T09:26:38;3.30;;;2.70;;
77400;SDS011;66855;45.414;11.082;2023-05-19T09:31:38;3.80;;;2.70;;
77400;SDS011;66855;45.414;11.082;2023-05-19T09:34:12;4.00;;;2.70;;
77400;SDS011;66855;45.414;11.082;2023-05-19T09:36:39;5.70;;;3.20;;
77400;SDS011;66855;45.414;11.082;2023-05-19T09:39:17;3.80;;;2.60;;
77400;SDS011;66855;45.414;11.082;2023-05-19T09:41:49;4.70;;;2.90;;
77400;SDS011;66855;45.414;11.082;2023-05-19T09:44:23;4.40;;;2.50;;
77400;SDS011;66855;45.414;11.082;2023-05-19T09:46:55;5.40;;;3.00;;
77400;SDS011;66855;45.414;11.082;2023-05-19T09:49:24;4.40;;;2.60;;
77400;SDS011;66855;45.414;11.082;2023-05-19T09:51:55;3.30;;;2.40;;
77400;SDS011;66855;45.414;11.082;2023-05-19T09:54:22;4.90;;;3.10;;
77400;SDS011;66855;45.414;11.082;2023-05-19T09:56:59;6.50;;;2.50;;
77400;SDS011;66855;45.414;11.082;2023-05-19T09:59:27;4.70;;;2.60;;
77400;SDS011;66855;45.414;11.082;2023-05-19T10:01:58;3.50;;;2.80;;
77400;SDS011;66855;45.414;11.082;2023-05-19T10:04:28;4.90;;;2.00;;
77400;SDS011;66855;45.414;11.082;2023-05-19T10:06:57;5.00;;;2.90;;
77400;SDS011;66855;45.414;11.082;2023-05-19T10:09:32;4.90;;;2.40;;
77400;SDS011;66855;45.414;11.082;2023-05-19T10:12:03;3.40;;;2.70;;
77400;SDS011;66855;45.414;11.082;2023-05-19T10:14:31;3.70;;;2.40;;
77400;SDS011;66855;45.414;11.082;2023-05-19T10:16:58;3.10;;;2.30;;
77400;SDS011;66855;45.414;11.082;2023-05-19T10:19:26;3.40;;;2.80;;
77400;SDS011;66855;45.414;11.082;2023-05-19T10:21:56;3.10;;;2.30;;
77400;SDS011;66855;45.414;11.082;2023-05-19T10:24:23;3.30;;;2.70;;
77400;SDS011;66855;45.414;11.082;2023-05-19T10:26:51;4.40;;;3.20;;
77400;SDS011;66855;45.414;11.082;2023-05-19T10:29:23;5.10;;;3.00;;
77400;SDS011;66855;45.414;11.082;2023-05-19T10:31:53;4.50;;;3.10;;
77400;SDS011;66855;45.414;11.082;2023-05-19T10:34:25;4.00;;;2.60;;
77400;SDS011;66855;45.414;11.082;2023-05-19T10:37:17;3.50;;;2.40;;
77400;SDS011;66855;45.414;11.082;2023-05-19T10:39:49;2.80;;;2.30;;
77400;SDS011;66855;45.414;11.082;2023-05-19T10:42:35;2.90;;;2.60;;
77400;SDS011;66855;45.414;11.082;2023-05-19T10:45:15;3.80;;;2.50;;
77400;SDS011;66855;45.414;11.082;2023-05-19T10:47:46;3.60;;;2.40;;
77400;SDS011;66855;45.414;11.082;2023-05-19T10:50:13;3.60;;;3.00;;
77400;SDS011;66855;45.414;11.082;2023-05-19T10:52:41;5.40;;;2.80;;
77400;SDS011;66855;45.414;11.082;2023-05-19T10:55:11;5.00;;;2.70;;
77400;SDS011;66855;45.414;11.082;2023-05-19T10:57:53;5.20;;;3.10;;
77400;SDS011;66855;45.414;11.082;2023-05-19T11:00:25;3.70;;;2.50;;
77400;SDS011;66855;45.414;11.082;2023-05-19T11:03:10;3.30;;;2.30;;
77400;SDS011;66855;45.414;11.082;2023-05-19T11:05:39;3.90;;;3.20;;
77400;SDS011;66855;45.414;11.082;2023-05-19T11:08:06;2.90;;;2.10;;
77400;SDS011;66855;45.414;11.082;2023-05-19T11:10:46;4.60;;;2.50;;
77400;SDS011;66855;45.414;11.082;2023-05-19T11:13:19;3.70;;;2.60;;
77400;SDS011;66855;45.414;11.082;2023-05-19T11:15:48;4.00;;;2.90;;
77400;SDS011;66855;45.414;11.082;2023-05-19T11:18:15;5.50;;;3.30;;
77400;SDS011;66855;45.414;11.082;2023-05-19T11:20:42;4.40;;;2.80;;
77400;SDS011;66855;45.414;11.082;2023-05-19T11:23:14;6.10;;;3.00;;
77400;SDS011;66855;45.414;11.082;2023-05-19T11:25:49;4.20;;;2.70;;
77400;SDS011;66855;45.414;11.082;2023-05-19T11:28:21;8.60;;;3.50;;
77400;SDS011;66855;45.414;11.082;2023-05-19T11:30:56;3.90;;;3.20;;
77400;SDS011;66855;45.414;11.082;2023-05-19T11:33:26;4.20;;;2.90;;
77400;SDS011;66855;45.414;11.082;2023-05-19T11:35:54;4.30;;;3.00;;
77400;SDS011;66855;45.414;11.082;2023-05-19T11:38:26;4.90;;;3.10;;
77400;SDS011;66855;45.414;11.082;2023-05-19T11:40:55;6.20;;;3.00;;
77400;SDS011;66855;45.414;11.082;2023-05-19T11:43:24;4.00;;;2.50;;
77400;SDS011;66855;45.414;11.082;2023-05-19T11:45:54;5.90;;;3.00;;
77400;SDS011;66855;45.414;11.082;2023-05-19T11:48:22;4.70;;;2.80;;
77400;SDS011;66855;45.414;11.082;2023-05-19T11:50:50;5.10;;;3.10;;
77400;SDS011;66855;45.414;11.082;2023-05-19T11:53:18;3.20;;;2.30;;
77400;SDS011;66855;45.414;11.082;2023-05-19T11:55:52;2.50;;;2.10;;
77400;SDS011;66855;45.414;11.082;2023-05-19T11:58:23;3.00;;;2.10;;
77400;SDS011;66855;45.414;11.082;2023-05-19T12:00:52;3.90;;;2.20;;
77400;SDS011;66855;45.414;11.082;2023-05-19T12:03:29;4.10;;;2.00;;
77400;SDS011;66855;45.414;11.082;2023-05-19T12:05:58;2.80;;;2.20;;
77400;SDS011;66855;45.414;11.082;2023-05-19T12:08:26;2.80;;;2.30;;
77400;SDS011;66855;45.414;11.082;2023-05-19T12:10:53;4.30;;;2.10;;
77400;SDS011;66855;45.414;11.082;2023-05-19T12:13:20;2.30;;;1.80;;
77400;SDS011;66855;45.414;11.082;2023-05-19T12:15:52;3.10;;;2.00;;
77400;SDS011;66855;45.414;11.082;2023-05-19T12:18:21;3.40;;;2.20;;
77400;SDS011;66855;45.414;11.082;2023-05-19T12:20:49;5.30;;;2.30;;
77400;SDS011;66855;45.414;11.082;2023-05-19T12:23:16;2.70;;;2.00;;
77400;SDS011;66855;45.414;11.082;2023-05-19T12:25:43;3.40;;;2.50;;
77400;SDS011;66855;45.414;11.082;2023-05-19T12:28:11;4.40;;;2.90;;
77400;SDS011;66855;45.414;11.082;2023-05-19T12:30:38;3.60;;;2.10;;
77400;SDS011;66855;45.414;11.082;2023-05-19T12:33:05;3.60;;;2.40;;
77400;SDS011;66855;45.414;11.082;2023-05-19T12:35:38;3.80;;;2.40;;
77400;SDS011;66855;45.414;11.082;2023-05-19T12:38:21;2.90;;;2.30;;
77400;SDS011;66855;45.414;11.082;2023-05-19T12:40:48;2.90;;;2.40;;
77400;SDS011;66855;45.414;11.082;2023-05-19T12:43:21;4.40;;;2.00;;
77400;SDS011;66855;45.414;11.082;2023-05-19T12:45:48;2.80;;;2.10;;
77400;SDS011;66855;45.414;11.082;2023-05-19T12:48:16;3.70;;;2.70;;
77400;SDS011;66855;45.414;11.082;2023-05-19T12:50:43;4.00;;;2.30;;
77400;SDS011;66855;45.414;11.082;2023-05-19T12:53:10;3.80;;;2.40;;
77400;SDS011;66855;45.414;11.082;2023-05-19T12:55:38;3.70;;;2.20;;
77400;SDS011;66855;45.414;11.082;2023-05-19T12:58:15;4.10;;;2.30;;
77400;SDS011;66855;45.414;11.082;2023-05-19T13:00:57;3.50;;;2.30;;
77400;SDS011;66855;45.414;11.082;2023-05-19T13:03:25;5.00;;;2.80;;
77400;SDS011;66855;45.414;11.082;2023-05-19T13:05:53;4.40;;;2.60;;
77400;SDS011;66855;45.414;11.082;2023-05-19T13:08:35;3.00;;;2.50;;
77400;SDS011;66855;45.414;11.082;2023-05-19T13:11:04;4.40;;;2.90;;
77400;SDS011;66855;45.414;11.082;2023-05-19T13:13:31;3.60;;;2.70;;
77400;SDS011;66855;45.414;11.082;2023-05-19T13:16:01;4.90;;;3.10;;
77400;SDS011;66855;45.414;11.082;2023-05-19T13:18:28;4.20;;;2.50;;
77400;SDS011;66855;45.414;11.082;2023-05-19T13:20:57;4.00;;;2.60;;
77400;SDS011;66855;45.414;11.082;2023-05-19T13:23:28;3.30;;;2.30;;
77400;SDS011;66855;45.414;11.082;2023-05-19T13:25:56;3.60;;;2.20;;
77400;SDS011;66855;45.414;11.082;2023-05-19T13:28:22;3.90;;;2.50;;
77400;SDS011;66855;45.414;11.082;2023-05-19T13:30:50;3.70;;;2.30;;
77400;SDS011;66855;45.414;11.082;2023-05-19T13:33:17;2.80;;;2.40;;
77400;SDS011;66855;45.414;11.082;2023-05-19T13:35:46;4.10;;;2.30;;
77400;SDS011;66855;45.414;11.082;2023-05-19T13:38:13;3.70;;;2.40;;
77400;SDS011;66855;45.414;11.082;2023-05-19T13:40:41;3.60;;;2.30;;
77400;SDS011;66855;45.414;11.082;2023-05-19T13:45:53;3.10;;;2.30;;
77400;SDS011;66855;45.414;11.082;2023-05-19T13:48:21;3.80;;;2.30;;
77400;SDS011;66855;45.414;11.082;2023-05-19T13:50:48;3.70;;;2.30;;
77400;SDS011;66855;45.414;11.082;2023-05-19T13:53:18;3.30;;;2.10;;
77400;SDS011;66855;45.414;11.082;2023-05-19T13:55:45;2.10;;;1.40;;
77400;SDS011;66855;45.414;11.082;2023-05-19T13:58:13;2.10;;;1.70;;
77400;SDS011;66855;45.414;11.082;2023-05-19T14:00:42;3.60;;;2.00;;
77400;SDS011;66855;45.414;11.082;2023-05-19T14:03:09;3.70;;;2.00;;
77400;SDS011;66855;45.414;11.082;2023-05-19T14:05:36;2.50;;;1.80;;
77400;SDS011;66855;45.414;11.082;2023-05-19T14:08:03;2.70;;;1.90;;
77400;SDS011;66855;45.414;11.082;2023-05-19T14:10:31;2.70;;;1.80;;
77400;SDS011;66855;45.414;11.082;2023-05-19T14:12:58;3.70;;;2.10;;
77400;SDS011;66855;45.414;11.082;2023-05-19T14:15:28;1.50;;;1.20;;
77400;SDS011;66855;45.414;11.082;2023-05-19T14:17:55;3.20;;;1.70;;
77400;SDS011;66855;45.414;11.082;2023-05-19T14:20:24;2.00;;;1.80;;
77400;SDS011;66855;45.414;11.082;2023-05-19T14:22:54;2.70;;;1.50;;
77400;SDS011;66855;45.414;11.082;2023-05-19T14:25:22;3.30;;;1.70;;
77400;SDS011;66855;45.414;11.082;2023-05-19T14:27:48;2.80;;;1.70;;
77400;SDS011;66855;45.414;11.082;2023-05-19T14:32:44;3.80;;;1.40;;
77400;SDS011;66855;45.414;11.082;2023-05-19T14:35:14;3.20;;;2.00;;
77400;SDS011;66855;45.414;11.082;2023-05-19T14:37:54;2.50;;;1.60;;
77400;SDS011;66855;45.414;11.082;2023-05-19T14:40:23;3.60;;;2.20;;
77400;SDS011;66855;45.414;11.082;2023-05-19T14:42:51;3.60;;;1.70;;
77400;SDS011;66855;45.414;11.082;2023-05-19T14:45:18;3.00;;;1.70;;
77400;SDS011;66855;45.414;11.082;2023-05-19T14:47:45;2.50;;;1.70;;
77400;SDS011;66855;45.414;11.082;2023-05-19T14:50:13;4.10;;;2.00;;
77400;SDS011;66855;45.414;11.082;2023-05-19T14:52:40;3.80;;;1.70;;
77400;SDS011;66855;45.414;11.082;2023-05-19T14:55:09;3.20;;;2.00;;
77400;SDS011;66855;45.414;11.082;2023-05-19T14:57:39;4.50;;;1.80;;
77400;SDS011;66855;45.414;11.082;2023-05-19T15:00:06;4.00;;;1.80;;
77400;SDS011;66855;45.414;11.082;2023-05-19T15:02:35;4.10;;;1.80;;
77400;SDS011;66855;45.414;11.082;2023-05-19T15:05:05;3.60;;;2.00;;
77400;SDS011;66855;45.414;11.082;2023-05-19T15:07:32;3.70;;;1.80;;
77400;SDS011;66855;45.414;11.082;2023-05-19T15:10:02;3.80;;;2.00;;
77400;SDS011;66855;45.414;11.082;2023-05-19T15:12:29;2.70;;;1.80;;
77400;SDS011;66855;45.414;11.082;2023-05-19T15:14:56;2.80;;;1.90;;
77400;SDS011;66855;45.414;11.082;2023-05-19T15:17:23;3.20;;;2.00;;